Time;durP1;ratioP1;P1;durP2;ratioP2;P2;SDS_P1;SDS_P2;PMS_P1;PMS_P2;Temp;Humidity;BMP_temperature;BMP_pressure;BME280_temperature;BME280_humidity;BME280_pressure;Samples;Min_cycle;Max_cycle;Signal;HPM_P1;HPM_P2
2022/07/16 00:01:52;;;;;;;5.15;3.00;;;18.40;42.90;;;18.98;38.17;98062.34;5028119;28;20272;-39
2022/07/16 00:04:20;;;;;;;6.72;3.28;;;18.40;42.90;;;18.95;38.07;98060.91;5028869;28;20052;-39
2022/07/16 00:06:48;;;;;;;4.68;3.90;;;18.40;42.90;;;18.92;38.06;98061.31;5027716;28;20049;-39
2022/07/16 00:09:16;;;;;;;4.45;3.42;;;18.30;42.80;;;18.88;38.09;98071.69;5026759;28;20053;-39
2022/07/16 00:11:44;;;;;;;4.25;2.90;;;18.30;43.00;;;18.83;38.27;98071.47;5028765;28;20065;-39
2022/07/16 00:14:12;;;;;;;5.50;2.90;;;18.20;43.10;;;18.76;38.51;98065.19;5027291;28;20053;-39
2022/07/16 00:16:40;;;;;;;6.53;3.38;;;18.10;43.40;;;18.71;38.39;98064.97;5027646;28;20049;-39
2022/07/16 00:19:18;;;;;;;3.83;2.95;;;18.10;43.40;;;18.70;38.55;98063.28;5027811;28;20061;-39
2022/07/16 00:21:49;;;;;;;9.50;3.28;;;18.10;43.50;;;18.65;38.53;98061.22;5027259;28;20041;-39
2022/07/16 00:24:17;;;;;;;3.70;3.17;;;18.10;43.40;;;18.65;38.37;98063.91;5028272;28;20045;-39
2022/07/16 00:26:47;;;;;;;4.75;3.22;;;18.10;43.20;;;18.60;38.55;98062.84;5026183;28;20053;-39
2022/07/16 00:29:18;;;;;;;3.95;3.30;;;18.00;43.30;;;18.58;38.61;98060.34;5025529;28;20065;-39
2022/07/16 00:31:49;;;;;;;3.88;3.05;;;18.00;43.50;;;18.59;38.51;98061.19;5028148;28;20045;-39
2022/07/16 00:34:17;;;;;;;4.10;2.97;;;18.00;43.80;;;18.55;38.78;98068.84;5027865;28;20049;-39
2022/07/16 00:36:45;;;;;;;4.75;2.85;;;18.00;43.80;;;18.52;38.92;98066.56;5026386;28;20057;-39
2022/07/16 00:39:15;;;;;;;4.05;3.00;;;17.90;43.90;;;18.50;39.00;98065.94;5026950;28;20053;-39
2022/07/16 00:41:46;;;;;;;4.18;3.00;;;17.90;44.20;;;18.43;39.19;98062.38;5027647;28;20045;-39
2022/07/16 00:44:17;;;;;;;4.38;2.53;;;17.80;44.30;;;18.41;38.96;98061.75;5027522;28;20061;-39
2022/07/16 00:46:47;;;;;;;4.70;3.00;;;17.80;44.00;;;18.38;38.83;98071.06;5027824;28;20045;-39
2022/07/16 00:49:19;;;;;;;4.18;3.33;;;17.70;44.00;;;18.34;39.00;98069.81;5026687;28;20045;-39
2022/07/16 00:51:51;;;;;;;6.28;3.33;;;17.60;44.10;;;18.30;38.98;98066.69;5026774;28;20080;-39
2022/07/16 00:54:20;;;;;;;4.07;2.80;;;17.70;44.40;;;18.26;38.90;98072.66;5026902;28;20359;-39
2022/07/16 00:56:48;;;;;;;3.60;2.83;;;17.60;44.20;;;18.20;39.00;98068.91;5025930;28;20041;-39
2022/07/16 00:59:16;;;;;;;4.32;2.95;;;17.60;44.30;;;18.18;39.14;98068.25;5027080;28;20059;-39
2022/07/16 01:01:45;;;;;;;3.85;2.63;;;17.50;44.10;;;18.17;39.15;98066.63;5026943;28;20067;-39
2022/07/16 01:04:16;;;;;;;3.95;2.60;;;17.50;44.30;;;18.14;39.40;98058.09;5027474;28;20059;-39
2022/07/16 01:06:48;;;;;;;4.03;2.60;;;17.50;44.40;;;18.12;39.20;98068.25;5026517;28;20045;-39
2022/07/16 01:09:17;;;;;;;3.90;3.03;;;17.50;44.50;;;18.09;39.29;98069.47;5027290;28;20053;-39
2022/07/16 01:11:46;;;;;;;5.20;3.75;;;17.40;44.10;;;18.05;39.50;98065.53;5024861;28;20107;-39
2022/07/16 01:14:15;;;;;;;3.40;2.70;;;17.50;44.70;;;18.02;39.72;98069.44;5027106;28;20057;-39
2022/07/16 01:16:43;;;;;;;5.75;2.78;;;17.40;45.50;;;18.01;39.46;98075.00;5026352;28;20698;-39
2022/07/16 01:19:12;;;;;;;3.53;2.50;;;17.40;44.30;;;17.89;39.48;98074.72;5025406;28;20049;-39
2022/07/16 01:21:43;;;;;;;3.83;2.75;;;17.30;44.60;;;17.88;39.69;98076.59;5025896;28;20046;-39
2022/07/16 01:24:11;;;;;;;4.55;3.10;;;17.30;44.70;;;17.88;39.53;98070.38;5027280;28;20060;-39
2022/07/16 01:26:39;;;;;;;4.60;3.05;;;17.30;44.60;;;17.85;39.57;98068.09;5027078;28;20068;-39
2022/07/16 01:29:07;;;;;;;3.38;2.95;;;17.20;44.70;;;17.71;39.65;98069.81;5027333;28;20526;-39
2022/07/16 01:31:35;;;;;;;3.70;2.78;;;17.00;44.90;;;17.74;39.77;98063.19;5026896;28;20047;-39
2022/07/16 01:37:03;;;;;;;4.05;2.58;;;17.20;44.30;;;17.76;39.30;98064.69;5027369;28;20055;-39
2022/07/16 01:39:35;;;;;;;4.13;2.55;;;17.20;44.40;;;17.80;39.58;98070.53;5025768;28;20046;-39
2022/07/16 01:42:05;;;;;;;3.58;2.40;;;17.30;44.20;;;17.80;39.87;98070.53;5026852;28;20053;-39
2022/07/16 01:44:35;;;;;;;5.40;3.08;;;17.30;44.60;;;17.74;40.00;98072.13;5026981;28;20394;-39
2022/07/16 01:47:06;;;;;;;4.18;2.80;;;17.20;44.90;;;17.71;39.73;98073.34;5027311;28;20452;-39
2022/07/16 01:49:37;;;;;;;4.60;3.05;;;17.10;44.80;;;17.71;39.75;98072.50;5026622;28;20049;-39
2022/07/16 01:52:15;;;;;;;4.50;2.95;;;17.20;45.00;;;17.68;39.74;98065.66;5026342;28;20029;-39
2022/07/16 01:54:47;;;;;;;4.53;3.25;;;17.10;45.10;;;17.60;39.78;98068.53;5026444;28;20056;-39
2022/07/16 01:57:16;;;;;;;5.10;2.53;;;17.00;45.00;;;17.59;39.97;98066.84;5028300;28;20053;-39
2022/07/16 01:59:44;;;;;;;3.30;2.92;;;17.00;45.00;;;17.58;40.05;98069.72;5029893;28;20051;-39
2022/07/16 02:02:13;;;;;;;5.70;2.97;;;17.00;45.20;;;17.56;40.00;98064.53;5030096;28;20356;-39
2022/07/16 02:04:43;;;;;;;5.78;3.20;;;17.00;45.30;;;17.48;40.43;98073.56;5030679;28;20059;-39
2022/07/16 02:07:11;;;;;;;4.70;3.08;;;16.90;45.70;;;17.45;40.30;98065.09;5029804;28;20079;-39
2022/07/16 02:09:39;;;;;;;3.50;2.72;;;16.90;45.70;;;17.43;40.27;98067.16;5030359;28;20079;-39
2022/07/16 02:12:07;;;;;;;3.78;2.55;;;16.90;45.60;;;17.39;40.02;98060.47;5030218;28;20079;-39
2022/07/16 02:14:35;;;;;;;3.35;2.47;;;16.80;45.40;;;17.32;40.37;98066.63;5029790;28;20064;-39
2022/07/16 02:17:03;;;;;;;4.15;2.50;;;16.70;45.40;;;17.34;40.00;98068.31;5030764;28;20049;-39
2022/07/16 02:19:30;;;;;;;4.95;2.55;;;16.80;45.20;;;17.36;40.39;98066.25;5029979;28;20378;-39
2022/07/16 02:21:59;;;;;;;3.38;2.63;;;16.80;45.40;;;17.34;40.58;98069.13;5029791;28;20053;-39
2022/07/16 02:24:28;;;;;;;4.07;2.85;;;16.80;45.70;;;17.32;40.44;98068.50;5030005;28;20057;-39
2022/07/16 02:26:55;;;;;;;4.22;2.47;;;16.80;45.80;;;17.29;40.73;98068.88;5029286;28;20087;-39
2022/07/16 02:29:24;;;;;;;4.75;2.40;;;16.70;46.10;;;17.27;40.82;98065.53;5029909;28;20064;-39
2022/07/16 02:31:52;;;;;;;3.03;2.53;;;16.70;46.10;;;17.24;40.91;98069.47;5028707;28;20056;-39
2022/07/16 02:34:20;;;;;;;3.05;2.55;;;16.70;46.20;;;17.22;40.86;98062.63;5029493;28;20054;-39
2022/07/16 02:36:48;;;;;;;4.38;2.85;;;16.60;46.10;;;17.17;40.69;98065.03;5028300;28;20045;-39
2022/07/16 02:39:16;;;;;;;3.30;2.55;;;16.60;46.20;;;17.15;40.87;98067.09;5029612;28;20340;-38
2022/07/16 02:41:43;;;;;;;5.03;2.78;;;16.60;46.20;;;17.15;40.87;98059.84;5031151;28;20336;-39
2022/07/16 02:44:11;;;;;;;4.10;3.33;;;16.60;46.10;;;17.15;40.96;98067.09;5028619;28;20068;-39
2022/07/16 02:46:39;;;;;;;5.47;2.90;;;16.60;46.20;;;17.09;41.06;98066.84;5030540;28;20859;-39
2022/07/16 02:49:07;;;;;;;3.10;2.50;;;16.50;46.40;;;17.01;41.26;98064.28;5027347;28;20064;-39
2022/07/16 02:51:35;;;;;;;3.40;2.50;;;16.40;46.70;;;16.97;41.40;98070.25;5029939;28;20243;-39
2022/07/16 02:54:04;;;;;;;3.47;2.63;;;16.30;47.00;;;16.95;41.45;98067.75;5029524;28;20045;-39
2022/07/16 02:56:32;;;;;;;4.15;2.63;;;16.30;47.00;;;16.95;41.34;98072.28;5029228;28;20041;-39
2022/07/16 02:59:00;;;;;;;3.47;2.85;;;16.30;47.00;;;16.91;41.66;98063.78;5028962;28;20251;-39
2022/07/16 03:01:28;;;;;;;3.47;2.72;;;16.30;47.20;;;16.90;41.27;98068.31;5029406;28;20199;-39
2022/07/16 03:03:56;;;;;;;3.25;2.58;;;16.30;47.00;;;16.89;41.34;98068.50;5027929;28;20057;-39
2022/07/16 03:06:24;;;;;;;3.05;2.25;;;16.30;46.90;;;16.85;41.63;98062.69;5029171;28;20053;-39
2022/07/16 03:08:52;;;;;;;6.10;4.35;;;16.20;47.10;;;16.81;41.52;98064.06;5027326;28;20057;-39
2022/07/16 03:11:19;;;;;;;3.67;2.42;;;16.20;47.30;;;16.76;41.94;98065.66;5028409;28;20042;-39
2022/07/16 03:13:47;;;;;;;3.28;2.50;;;16.20;47.50;;;16.76;41.92;98062.97;5028933;28;20051;-39
2022/07/16 03:16:15;;;;;;;3.55;2.45;;;16.20;47.50;;;16.71;42.14;98058.13;5028901;28;20158;-39
2022/07/16 03:18:43;;;;;;;3.05;2.60;;;16.10;47.70;;;16.71;41.85;98064.38;5029622;28;20272;-39
2022/07/16 03:21:11;;;;;;;3.10;2.58;;;16.10;47.50;;;16.73;41.75;98061.50;5028607;28;20465;-39
2022/07/16 03:23:39;;;;;;;3.13;2.45;;;16.10;47.40;;;16.72;41.76;98063.31;5026867;28;20055;-39
2022/07/16 03:26:07;;;;;;;3.03;2.72;;;16.10;47.30;;;16.69;41.93;98058.34;5027945;28;20257;-39
2022/07/16 03:28:36;;;;;;;5.47;2.63;;;16.10;47.60;;;16.65;42.12;98054.38;5028194;28;20064;-39
2022/07/16 03:31:04;;;;;;;4.65;2.38;;;16.10;47.80;;;16.61;42.05;98058.44;5029335;28;20348;-39
2022/07/16 03:33:32;;;;;;;4.97;3.72;;;16.00;47.80;;;16.58;42.23;98064.22;5028755;28;20263;-39
2022/07/16 03:36:00;;;;;;;3.85;2.97;;;16.00;47.90;;;16.58;42.18;98064.22;5027510;28;20067;-39
2022/07/16 03:41:14;;;;;;;4.65;2.65;;;16.00;48.10;;;16.57;42.38;98067.91;5028386;28;20045;-39
2022/07/16 03:43:42;;;;;;;5.57;3.13;;;16.00;48.20;;;16.56;42.39;98062.75;5028060;28;20246;-39
2022/07/16 03:46:13;;;;;;;4.28;2.58;;;16.00;48.10;;;16.52;42.51;98073.84;5029705;28;20049;-39
2022/07/16 03:48:41;;;;;;;5.38;2.70;;;16.00;48.40;;;16.50;42.53;98067.84;5028370;28;20254;-39
2022/07/16 03:51:10;;;;;;;3.20;2.38;;;15.90;48.40;;;16.49;42.53;98074.22;5027734;28;20053;-39
2022/07/16 03:53:39;;;;;;;2.95;2.30;;;15.90;48.40;;;16.48;42.57;98077.13;5028239;28;20079;-39
2022/07/16 03:56:07;;;;;;;3.60;2.38;;;15.90;48.30;;;16.45;42.68;98072.13;5027422;28;20049;-40
2022/07/16 03:58:36;;;;;;;4.93;2.75;;;15.90;48.50;;;16.46;42.71;98073.75;5027523;28;20243;-39
2022/07/16 04:01:04;;;;;;;4.38;3.65;;;15.90;48.40;;;16.43;42.70;98077.66;5027142;28;20073;-39
2022/07/16 04:03:33;;;;;;;4.70;2.63;;;15.90;48.40;;;16.46;42.77;98079.13;5028113;28;20059;-39
2022/07/16 04:06:03;;;;;;;7.80;2.60;;;16.00;48.50;;;16.47;42.59;98078.97;5028308;28;20065;-39
2022/07/16 04:08:31;;;;;;;3.08;2.33;;;15.90;48.30;;;16.50;42.51;98081.28;5028125;28;20053;-39
2022/07/16 04:11:01;;;;;;;5.28;2.58;;;16.00;48.20;;;16.52;42.65;98079.22;5028101;28;20056;-39
2022/07/16 04:13:29;;;;;;;3.20;2.53;;;16.00;48.00;;;16.49;42.78;98084.16;5027425;28;20045;-39
2022/07/16 04:15:57;;;;;;;5.50;2.40;;;16.00;48.30;;;16.49;42.79;98087.66;5028174;28;20439;-39
2022/07/16 04:18:25;;;;;;;4.18;2.30;;;16.00;48.50;;;16.50;42.91;98092.03;5026587;28;20045;-39
2022/07/16 04:20:53;;;;;;;4.00;2.67;;;16.10;48.70;;;16.52;42.87;98092.66;5027538;28;20050;-39
2022/07/16 04:23:20;;;;;;;3.17;2.30;;;16.00;48.50;;;16.56;42.99;98092.31;5028733;28;20065;-39
2022/07/16 04:25:48;;;;;;;5.22;3.28;;;16.10;48.50;;;16.58;42.87;98099.16;5028839;28;20068;-39
2022/07/16 04:28:16;;;;;;;4.00;2.25;;;16.10;48.60;;;16.60;42.95;98089.03;5027011;28;20055;-39
2022/07/16 04:30:44;;;;;;;4.00;2.40;;;16.20;48.60;;;16.60;42.87;98086.34;5028472;28;20290;-39
2022/07/16 04:33:12;;;;;;;3.38;2.22;;;16.20;48.50;;;16.59;43.08;98095.44;5027706;28;20352;-39
2022/07/16 04:35:40;;;;;;;3.70;2.58;;;16.10;48.70;;;16.59;43.40;98098.13;5027848;28;20051;-39
2022/07/16 04:38:08;;;;;;;4.10;2.15;;;16.20;48.90;;;16.61;43.25;98097.94;5026582;28;20229;-39
2022/07/16 04:40:36;;;;;;;3.88;2.42;;;16.20;48.90;;;16.64;43.07;98103.78;5027847;28;20057;-39
2022/07/16 04:43:04;;;;;;;6.03;2.90;;;16.30;48.70;;;16.61;42.86;98093.38;5026967;28;20051;-39
2022/07/16 04:45:32;;;;;;;6.38;2.35;;;16.20;48.30;;;16.63;42.93;98102.09;5026218;28;20061;-39
2022/07/16 04:47:59;;;;;;;3.70;2.13;;;16.20;48.10;;;16.71;42.54;98098.44;5027168;28;20068;-39
2022/07/16 04:50:28;;;;;;;4.38;2.58;;;16.40;47.50;;;16.75;42.67;98105.16;5025753;28;20060;-39
2022/07/16 04:52:56;;;;;;;2.92;2.20;;;16.40;47.70;;;16.73;42.43;98101.81;5026757;28;20366;-39
2022/07/16 04:55:24;;;;;;;3.58;2.53;;;16.30;47.30;;;16.76;42.07;98100.59;5027779;28;20060;-39
2022/07/16 04:57:52;;;;;;;4.65;2.28;;;16.40;47.00;;;16.80;42.32;98097.31;5026759;28;20053;-39
2022/07/16 05:00:26;;;;;;;3.15;2.53;;;16.50;46.90;;;16.85;42.01;98103.00;5041412;28;20057;-39
2022/07/16 05:02:57;;;;;;;3.60;2.63;;;16.60;46.40;;;16.92;41.76;98108.44;5026344;28;20049;-39
2022/07/16 05:05:33;;;;;;;3.70;2.63;;;16.70;46.40;;;16.97;41.51;98103.34;5027768;28;20061;-39
2022/07/16 05:08:05;;;;;;;6.75;2.20;;;16.70;45.80;;;17.01;41.17;98106.47;5026418;28;20303;-39
2022/07/16 05:10:33;;;;;;;4.22;2.58;;;16.70;45.70;;;17.01;41.53;98104.63;5027363;28;20064;-39
2022/07/16 05:13:02;;;;;;;4.22;2.58;;;16.70;46.00;;;17.04;41.10;98109.63;5026533;28;20046;-39
2022/07/16 05:15:30;;;;;;;4.80;2.38;;;16.70;45.30;;;17.06;41.38;98112.09;5027027;28;20056;-39
2022/07/16 05:17:58;;;;;;;5.85;2.40;;;16.70;45.70;;;17.12;41.26;98114.88;5026057;28;20057;-40
2022/07/16 05:20:26;;;;;;;3.90;2.35;;;16.90;45.80;;;17.16;41.21;98122.53;5026876;28;20053;-39
2022/07/16 05:22:56;;;;;;;3.33;2.10;;;16.90;45.60;;;17.16;40.96;98115.34;5026324;28;20059;-39
2022/07/16 05:25:24;;;;;;;3.38;2.25;;;16.90;45.20;;;17.16;41.00;98118.03;5026596;28;20049;-39
2022/07/16 05:27:51;;;;;;;4.53;3.03;;;16.80;45.10;;;17.10;41.15;98125.00;5025247;28;20071;-39
2022/07/16 05:30:19;;;;;;;4.72;2.08;;;16.80;45.20;;;17.13;41.28;98121.91;5026265;28;20053;-39
2022/07/16 05:32:47;;;;;;;3.05;2.17;;;16.90;45.60;;;17.13;40.99;98123.78;5026841;28;20053;-39
2022/07/16 05:35:16;;;;;;;3.53;2.50;;;16.90;45.10;;;17.10;40.98;98122.31;5026411;28;20048;-39
2022/07/16 05:37:44;;;;;;;3.85;2.10;;;16.80;45.30;;;17.08;41.12;98118.97;5025397;28;20041;-39
2022/07/16 05:40:13;;;;;;;4.05;2.38;;;16.80;45.60;;;17.13;41.25;98126.47;5025888;28;20053;-39
2022/07/16 05:42:42;;;;;;;5.75;2.50;;;16.80;45.60;;;17.20;41.15;98123.84;5024690;28;20037;-39
2022/07/16 05:45:17;;;;;;;4.53;2.58;;;17.00;45.60;;;17.26;40.96;98128.47;5026323;28;20293;-39
2022/07/16 05:47:45;;;;;;;2.40;1.85;;;17.10;44.90;;;17.28;40.38;98132.63;5026061;28;20053;-39
2022/07/16 05:50:13;;;;;;;4.07;2.30;;;17.10;44.10;;;17.20;40.21;98127.38;5027253;28;20049;-39
2022/07/16 05:52:42;;;;;;;5.95;2.20;;;17.00;43.90;;;17.26;40.53;98123.09;5025003;28;20049;-39
2022/07/16 05:55:10;;;;;;;4.75;2.10;;;17.10;44.30;;;17.35;40.38;98124.63;5025735;28;20092;-39
2022/07/16 05:57:38;;;;;;;4.55;2.33;;;17.10;44.30;;;17.46;40.45;98125.94;5025905;28;20049;-39
2022/07/16 06:00:10;;;;;;;4.45;2.40;;;17.30;44.10;;;17.57;40.49;98127.31;5025962;28;20080;-39
2022/07/16 06:02:42;;;;;;;3.45;2.42;;;17.50;44.00;;;17.62;40.36;98122.16;5029036;28;20041;-39
2022/07/16 06:05:10;;;;;;;4.75;2.10;;;17.50;43.70;;;17.68;40.15;98132.97;5026599;28;20079;-39
2022/07/16 06:07:39;;;;;;;5.00;2.70;;;17.60;43.50;;;17.77;40.01;98135.53;5026167;28;20057;-39
2022/07/16 06:10:08;;;;;;;2.65;2.00;;;17.60;43.20;;;17.79;39.82;98130.78;5025992;28;20058;-39
2022/07/16 06:12:36;;;;;;;2.70;2.20;;;17.70;43.00;;;17.79;39.78;98133.47;5025609;28;20055;-39
2022/07/16 06:15:06;;;;;;;3.22;2.33;;;17.60;43.30;;;17.68;39.79;98127.59;5026625;28;20053;-40
2022/07/16 06:17:34;;;;;;;9.32;2.55;;;17.50;43.10;;;17.68;39.92;98137.50;5024151;28;20053;-40
2022/07/16 06:20:04;;;;;;;2.55;2.10;;;17.50;43.50;;;17.77;40.03;98143.59;5023715;28;20053;-40
2022/07/16 06:22:33;;;;;;;4.95;2.55;;;17.60;43.40;;;17.86;39.63;98137.91;5024685;28;20332;-40
2022/07/16 06:25:01;;;;;;;2.88;2.17;;;17.80;43.10;;;17.93;39.68;98148.72;5024421;28;20049;-40
2022/07/16 06:27:29;;;;;;;4.68;2.42;;;17.80;43.10;;;18.02;39.40;98154.81;5026157;28;20061;-40
2022/07/16 06:30:03;;;;;;;3.17;2.58;;;18.00;42.60;;;18.07;39.81;98142.41;5026193;28;20505;-40
2022/07/16 06:32:31;;;;;;;3.22;2.30;;;18.00;43.20;;;18.15;39.99;98152.22;5026127;28;20066;-40
2022/07/16 06:34:59;;;;;;;4.35;2.50;;;18.10;43.60;;;18.20;40.22;98149.72;5025646;28;20045;-40
2022/07/16 06:37:27;;;;;;;5.47;3.08;;;18.10;43.90;;;18.21;40.33;98154.09;5024855;28;20049;-40
2022/07/16 06:39:55;;;;;;;2.70;2.33;;;18.10;44.00;;;18.25;40.00;98149.97;5025787;28;20049;-39
2022/07/16 06:42:23;;;;;;;3.28;2.03;;;18.20;43.50;;;18.29;39.41;98147.72;5026698;28;20412;-40
2022/07/16 06:44:51;;;;;;;4.78;2.53;;;18.20;42.60;;;18.32;39.89;98154.56;5029733;28;20259;-39
2022/07/16 06:47:19;;;;;;;7.63;2.50;;;18.20;43.30;;;18.37;40.12;98154.81;5029778;28;20424;-40
2022/07/16 06:49:47;;;;;;;4.15;2.90;;;18.30;43.70;;;18.41;39.11;98154.22;5026884;28;20196;-40
2022/07/16 06:52:15;;;;;;;3.88;2.17;;;18.30;42.30;;;18.41;39.00;98156.09;5030070;28;20258;-40
2022/07/16 06:54:43;;;;;;;6.03;2.40;;;18.30;42.20;;;18.36;38.72;98162.09;5029532;28;20052;-39
2022/07/16 06:57:10;;;;;;;5.82;3.28;;;18.30;41.90;;;18.42;38.96;98153.19;5015617;28;20052;-39
2022/07/16 06:59:39;;;;;;;3.92;2.38;;;18.30;42.30;;;18.44;39.43;98159.22;5017322;28;20041;-40
2022/07/16 07:02:07;;;;;;;5.60;2.55;;;18.40;42.90;;;18.50;39.51;98168.38;5019496;28;20367;-40
2022/07/16 07:04:35;;;;;;;4.55;2.72;;;18.40;43.20;;;18.50;39.61;98163.00;5020912;28;20227;-39
2022/07/16 07:07:04;;;;;;;4.25;2.70;;;18.40;43.00;;;18.52;39.31;98168.19;5028998;28;20579;-39
2022/07/16 07:09:32;;;;;;;6.07;2.60;;;18.40;42.90;;;18.58;39.18;98164.69;5027303;28;20063;-39
2022/07/16 07:12:01;;;;;;;3.78;2.35;;;18.50;42.40;;;18.68;38.91;98170.53;5029353;28;20439;-39
2022/07/16 07:14:29;;;;;;;8.73;3.17;;;18.70;42.10;;;18.77;38.86;98172.03;5027935;28;20049;-39
2022/07/16 07:17:01;;;;;;;2.90;2.38;;;18.80;41.70;;;18.84;39.25;98172.94;5028192;28;20565;-39
2022/07/16 07:19:29;;;;;;;4.70;2.50;;;18.90;42.30;;;18.88;39.22;98168.81;5029027;28;20141;-39
2022/07/16 07:22:00;;;;;;;7.30;2.60;;;19.00;42.00;;;18.93;39.06;98178.16;5029090;28;20046;-40
2022/07/16 07:24:28;;;;;;;4.55;2.95;;;19.00;41.90;;;18.95;38.81;98176.06;5028098;28;20065;-39
2022/07/16 07:27:15;;;;;;;4.15;2.50;;;18.90;41.80;;;18.99;38.83;98177.34;5029108;28;20057;-39
2022/07/16 07:29:43;;;;;;;4.03;2.58;;;19.00;41.60;;;19.01;38.98;98184.19;5028372;28;20237;-39
2022/07/16 07:32:11;;;;;;;3.78;2.38;;;19.00;42.10;;;18.97;39.08;98174.84;5029015;28;20055;-39
2022/07/16 07:34:40;;;;;;;3.90;2.72;;;19.10;41.70;;;19.11;39.46;98178.41;5028207;28;20047;-39
2022/07/16 07:37:08;;;;;;;2.72;2.22;;;19.20;42.50;;;19.15;38.96;98178.84;5028303;28;20057;-39
2022/07/16 07:39:36;;;;;;;5.22;2.45;;;19.20;42.00;;;19.19;38.57;98180.09;5027706;28;20370;-39
2022/07/16 07:42:03;;;;;;;4.65;2.35;;;19.20;41.10;;;19.16;38.64;98184.03;5028213;28;20057;-39
2022/07/16 07:44:31;;;;;;;3.30;2.90;;;19.20;41.60;;;19.15;38.87;98176.13;5028677;28;20064;-39
2022/07/16 07:46:59;;;;;;;4.03;2.50;;;19.20;41.70;;;19.20;38.84;98179.06;5028397;28;20053;-39
2022/07/16 07:49:27;;;;;;;3.65;2.50;;;19.30;42.00;;;19.24;39.14;98183.03;5029589;28;20592;-39
2022/07/16 07:51:56;;;;;;;3.85;2.47;;;19.30;42.20;;;19.28;39.15;98179.69;5027093;28;20057;-39
2022/07/16 07:54:24;;;;;;;5.50;2.58;;;19.40;41.80;;;19.21;39.03;98181.56;5028293;28;20099;-39
2022/07/16 07:56:52;;;;;;;6.13;3.00;;;19.40;41.50;;;19.30;39.07;98187.59;5028258;28;20352;-38
2022/07/16 07:59:21;;;;;;;3.00;2.47;;;19.50;41.50;;;19.44;38.94;98183.91;5026330;28;20041;-39
2022/07/16 08:01:49;;;;;;;4.35;2.95;;;19.60;41.80;;;19.49;38.89;98185.97;5027044;28;20232;-39
2022/07/16 08:04:18;;;;;;;3.47;2.20;;;19.60;41.70;;;19.54;38.30;98185.34;5037154;28;20057;-39
2022/07/16 08:06:46;;;;;;;3.85;2.60;;;19.70;40.60;;;19.65;38.17;98184.75;5037436;28;20051;-38
2022/07/16 08:09:14;;;;;;;2.53;2.13;;;19.80;40.80;;;19.71;38.10;98177.69;5035928;28;20247;-39
2022/07/16 08:11:42;;;;;;;5.07;2.28;;;19.90;40.50;;;19.77;37.16;98180.41;5037653;28;20040;-38
2022/07/16 08:14:10;;;;;;;4.25;2.25;;;20.00;38.50;;;19.83;36.80;98189.56;5036296;28;20051;-39
2022/07/16 08:16:56;;;;;;;3.83;2.25;;;20.00;38.90;;;19.88;37.05;98178.97;5035526;28;20597;-39
2022/07/16 08:19:25;;;;;;;3.33;2.55;;;20.10;38.80;;;19.93;37.09;98175.63;5031261;28;20355;-39
2022/07/16 08:21:53;;;;;;;4.60;2.67;;;20.10;39.10;;;20.00;36.77;98173.78;5026322;28;20047;-39
2022/07/16 08:27:08;;;;;;;3.13;1.80;;;20.30;38.10;;;20.13;35.99;98175.66;5026804;28;20063;-39
2022/07/16 08:29:36;;;;;;;3.08;2.08;;;20.30;37.80;;;20.18;35.80;98175.81;5025665;28;20540;-40
2022/07/16 08:32:05;;;;;;;5.20;2.38;;;20.30;37.70;;;20.23;36.35;98179.56;5027452;28;20061;-40
2022/07/16 08:34:33;;;;;;;3.00;2.38;;;20.40;38.50;;;20.27;36.15;98169.16;5028052;28;20335;-40
2022/07/16 08:37:07;;;;;;;4.32;2.10;;;20.50;38.30;;;20.34;36.25;98172.69;5027734;28;20053;-40
2022/07/16 08:39:38;;;;;;;;;;;20.50;38.40;;;20.34;36.19;98174.59;5027083;28;20053;-40
2022/07/16 08:42:10;;;;;;;4.68;2.20;;;20.60;37.80;;;20.46;35.72;98172.88;5026871;28;20132;-40
2022/07/16 08:44:40;;;;;;;3.83;2.30;;;20.70;37.90;;;20.50;35.63;98171.41;5027830;28;20143;-40
2022/07/16 08:47:10;;;;;;;3.13;2.00;;;20.70;37.90;;;20.49;35.90;98156.25;5027467;28;20058;-39
2022/07/16 08:49:38;;;;;;;3.60;1.92;;;20.70;37.90;;;20.54;35.00;98169.13;5026702;28;20060;-40
2022/07/16 08:52:08;;;;;;;2.75;2.35;;;20.70;37.00;;;20.54;34.37;98174.53;5026143;28;20046;-41
2022/07/16 08:54:39;;;;;;;2.20;1.67;;;20.80;35.90;;;20.59;34.46;98177.44;5024611;28;20046;-40
2022/07/16 08:57:08;;;;;;;3.67;2.33;;;20.80;36.00;;;20.55;34.64;98179.72;5025905;28;20431;-41
2022/07/16 08:59:37;;;;;;;4.82;2.08;;;20.90;35.90;;;20.64;34.42;98175.75;5027106;28;20041;-39
2022/07/16 09:02:05;;;;;;;2.88;1.80;;;20.90;35.90;;;20.70;34.43;98165.97;5024669;28;20053;-40
2022/07/16 09:04:35;;;;;;;3.25;1.75;;;20.90;35.70;;;20.71;34.24;98167.63;5027904;28;20071;-40
2022/07/16 09:07:03;;;;;;;2.33;1.77;;;20.80;36.00;;;20.72;33.97;98176.56;5026198;28;20057;-40
2022/07/16 09:09:31;;;;;;;3.45;2.05;;;20.90;35.80;;;20.76;33.95;98169.69;5027353;28;20057;-40
2022/07/16 09:12:00;;;;;;;4.93;1.98;;;21.00;35.50;;;20.72;33.15;98163.06;5026507;28;20053;-40
2022/07/16 09:14:28;;;;;;;2.03;1.77;;;21.00;34.20;;;20.72;33.53;98168.47;5026347;28;20275;-40
2022/07/16 09:16:55;;;;;;;2.60;1.95;;;20.90;35.00;;;20.80;33.92;98174.47;5026249;28;20053;-39
2022/07/16 09:19:29;;;;;;;2.63;1.70;;;21.00;35.30;;;20.85;33.41;98176.53;5026488;28;20049;-39
2022/07/16 09:22:09;;;;;;;2.60;2.15;;;21.20;35.00;;;20.94;33.24;98174.44;5027319;28;20366;-39
2022/07/16 09:24:45;;;;;;;2.33;1.70;;;21.10;34.80;;;20.97;32.84;98180.22;5025656;28;20077;-39
2022/07/16 09:27:22;;;;;;;4.78;1.90;;;21.30;34.30;;;21.07;33.31;98171.63;5025358;28;20046;-39
2022/07/16 09:30:02;;;;;;;3.30;2.10;;;21.30;34.80;;;20.95;33.23;98181.47;5025632;28;20235;-40
2022/07/16 09:32:39;;;;;;;4.35;2.15;;;21.20;34.30;;;21.00;33.04;98178.97;5026488;28;20049;-40
2022/07/16 09:35:13;;;;;;;2.45;2.05;;;21.30;34.50;;;21.08;33.01;98172.50;5026589;28;20045;-39
2022/07/16 09:37:57;;;;;;;3.20;1.98;;;21.30;34.70;;;21.10;33.04;98179.34;5027440;28;20057;-40
2022/07/16 09:40:35;;;;;;;2.63;2.42;;;21.40;34.50;;;21.11;32.85;98169.31;5026525;28;20045;-39
2022/07/16 09:43:24;;;;;;;4.30;2.25;;;21.50;33.50;;;21.27;33.19;98170.69;5025561;28;20360;-39
2022/07/16 09:46:03;;;;;;;4.22;2.38;;;21.50;34.70;;;21.24;31.93;98177.38;5026673;28;20053;-39
2022/07/16 09:48:37;;;;;;;2.72;1.80;;;21.60;32.80;;;21.24;31.93;98177.38;5027453;28;20052;-39
2022/07/16 09:51:26;;;;;;;1.85;1.63;;;21.50;33.00;;;21.30;31.90;98183.81;5025431;28;20279;-39
2022/07/16 09:53:55;;;;;;;2.20;2.00;;;21.60;32.50;;;21.28;31.54;98169.66;5027743;28;20057;-39
2022/07/16 09:56:27;;;;;;;3.67;2.03;;;21.60;32.50;;;21.31;31.62;98175.47;5026749;28;20365;-39
2022/07/16 09:58:58;;;;;;;3.40;1.90;;;21.60;32.30;;;21.40;31.44;98163.34;5025316;28;20049;-39
2022/07/16 10:01:33;;;;;;;2.17;1.90;;;21.70;32.10;;;21.47;31.69;98173.34;5008331;28;20296;-39
2022/07/16 10:04:03;;;;;;;3.40;1.77;;;21.80;32.80;;;21.55;31.51;98178.47;5025058;28;20359;-39
2022/07/16 10:06:31;;;;;;;3.45;1.85;;;21.80;32.30;;;21.53;31.38;98177.88;5026938;28;20055;-39
2022/07/16 10:09:00;;;;;;;2.83;1.88;;;21.80;32.30;;;21.53;30.74;98186.81;5027633;28;20049;-39
2022/07/16 10:11:28;;;;;;;2.05;1.50;;;21.90;31.20;;;21.64;30.94;98177.16;5024749;28;20045;-39
2022/07/16 10:13:57;;;;;;;2.70;1.70;;;21.90;32.00;;;21.66;30.88;98176.97;5025800;28;20055;-39
2022/07/16 10:16:47;;;;;;;2.60;2.00;;;21.90;31.80;;;21.68;30.36;98182.97;5024593;28;20262;-39
2022/07/16 10:19:16;;;;;;;2.50;1.60;;;22.10;30.90;;;21.77;30.74;98184.34;5029055;28;20264;-39
2022/07/16 10:22:16;;;;;;;2.83;2.08;;;22.00;31.20;;;21.74;30.83;98180.22;5029430;28;20343;-39
2022/07/16 10:24:55;;;;;;;4.45;2.55;;;22.00;30.80;;;21.69;30.51;98181.91;5030125;28;20079;-40
2022/07/16 10:27:34;;;;;;;2.65;2.03;;;21.90;31.30;;;21.77;29.89;98179.78;5029455;28;20061;-39
2022/07/16 10:30:16;;;;;;;4.68;2.10;;;22.00;30.70;;;21.76;29.79;98185.41;5029449;28;20362;-39
2022/07/16 10:32:59;;;;;;;3.83;2.00;;;22.00;30.50;;;21.83;28.34;98167.25;5028353;28;20056;-39
2022/07/16 10:35:45;;;;;;;3.50;1.92;;;22.10;28.90;;;21.83;28.43;98172.66;5029534;28;20056;-39
2022/07/16 10:38:24;;;;;;;3.00;1.60;;;22.10;29.30;;;21.85;28.96;98172.41;5029586;28;20374;-39
2022/07/16 10:41:15;;;;;;;3.08;2.00;;;22.20;30.00;;;21.93;27.72;98172.97;5028693;28;20055;-39